Atqasuk, Alaska
Current Conditions -  °F | °C
As of 1:53 AM on Sunday 26 Oct 2014 (Local Time) from PAWI Reporting Station
Haze Haze  
Wind Chill:   Ceiling: 500
Heat Index: 17°   Visibility: 4mi
Dew Point: 13°   Wind: 14mph
Humidity: 84%   Direction: 60°ENE
Pressure: 29.53"   Gusts: NA
Location:  70.47°N, 157.4°W
Report Text: PAWI 260953Z AUTO 06012KT 4SM BR OVC005 M08/M11 A2953 RMK AO2 SLP001 T10831106 TSNO
Loading
Personal Weather Stations






























Interactive Weather Map
Tropical Storm Tracking
New forecast layout! Learn more

10-Day Weather Forecast

Advertisements
Track Severe Weather on mobile